createdAt,value
2022-11-15T00:02:02.362Z,102035.94
2022-11-15T00:04:48.707Z,102027.81
2022-11-15T00:07:54.698Z,102030.59
2022-11-15T00:10:41.899Z,102025.88
2022-11-15T00:13:28.691Z,102024.34
2022-11-15T00:16:15.083Z,102023.41
2022-11-15T00:19:00.912Z,102021.09
2022-11-15T00:21:49.941Z,102023.00
2022-11-15T00:24:36.193Z,102018.34
2022-11-15T00:27:22.239Z,102019.00
2022-11-15T00:30:08.856Z,102013.66
2022-11-15T00:32:57.365Z,102014.03
2022-11-15T00:35:43.624Z,102011.72
2022-11-15T00:38:34.608Z,102011.88
2022-11-15T00:41:20.693Z,102019.91
2022-11-15T00:44:07.338Z,102024.50
2022-11-15T00:46:55.888Z,102013.38
2022-11-15T00:49:43.811Z,102017.13
2022-11-15T00:52:30.455Z,102026.00
2022-11-15T00:55:17.489Z,102012.94
2022-11-15T00:58:03.700Z,102015.88
2022-11-15T01:00:51.314Z,102013.34
2022-11-15T01:03:38.553Z,102013.56
2022-11-15T01:06:24.868Z,102011.03
2022-11-15T01:09:12.106Z,102014.78
2022-11-15T01:11:58.522Z,102012.25
2022-11-15T01:14:45.391Z,102018.69
2022-11-15T01:17:31.797Z,102014.34
2022-11-15T01:20:18.140Z,102012.72
2022-11-15T01:23:04.835Z,102010.13
2022-11-15T01:25:51.212Z,102018.16
2022-11-15T01:28:38.576Z,102017.06
2022-11-15T01:31:24.611Z,102008.72
2022-11-15T01:34:10.778Z,102011.66
2022-11-15T01:37:02.588Z,102014.59
2022-11-15T01:39:49.037Z,102006.81
2022-11-15T01:42:36.039Z,102004.28
2022-11-15T01:45:22.486Z,102006.53
2022-11-15T01:48:09.088Z,102008.53
2022-11-15T01:50:55.132Z,102017.75
2022-11-15T01:53:43.059Z,102024.06
2022-11-15T01:56:30.700Z,102037.53
2022-11-15T01:59:16.688Z,102038.53
2022-11-15T02:02:03.782Z,102049.00
2022-11-15T02:04:50.092Z,102044.50
2022-11-15T02:07:36.673Z,102047.88
2022-11-15T02:10:25.146Z,102054.09
2022-11-15T02:13:11.583Z,102049.00
2022-11-15T02:16:27.027Z,102056.34
2022-11-15T02:19:34.938Z,102047.00
2022-11-15T02:22:44.729Z,102044.72
2022-11-15T02:25:52.651Z,102052.91
2022-11-15T02:28:46.948Z,102054.72
2022-11-15T02:31:47.999Z,102047.78
2022-11-15T02:35:13.444Z,102056.94
2022-11-15T02:38:28.193Z,102049.69
2022-11-15T02:41:18.023Z,102041.69
2022-11-15T02:44:09.175Z,102039.22
2022-11-15T02:47:14.984Z,102025.91
2022-11-15T02:50:08.347Z,102024.34
2022-11-15T02:52:56.217Z,102027.88
2022-11-15T02:55:47.404Z,102024.22
2022-11-15T02:59:04.252Z,102031.47
2022-11-15T03:01:53.704Z,102037.91
2022-11-15T03:04:50.663Z,102042.41
2022-11-15T03:07:42.112Z,102036.91
2022-11-15T03:10:37.456Z,102035.13
2022-11-15T03:13:28.179Z,102041.22
2022-11-15T03:16:27.646Z,102035.88
2022-11-15T03:19:49.457Z,102041.56
2022-11-15T03:22:40.445Z,102049.72
2022-11-15T03:25:27.180Z,102041.22
2022-11-15T03:28:16.193Z,102030.97
2022-11-15T03:31:02.793Z,102024.28
2022-11-15T03:33:50.059Z,102025.53
2022-11-15T03:36:35.947Z,102025.06
2022-11-15T03:39:21.993Z,102028.06
2022-11-15T03:42:13.907Z,102023.16
2022-11-15T03:45:04.383Z,102010.06
2022-11-15T03:47:53.134Z,102012.16
2022-11-15T03:50:39.215Z,102001.84
2022-11-15T03:53:25.564Z,102002.41
2022-11-15T03:56:11.725Z,102003.84
2022-11-15T03:58:57.906Z,101992.88
2022-11-15T04:01:46.149Z,101990.97
2022-11-15T04:04:32.232Z,101995.44
2022-11-15T04:07:18.657Z,101998.13
2022-11-15T04:10:06.703Z,101999.88
2022-11-15T04:12:52.918Z,101999.88
2022-11-15T04:15:40.163Z,101988.22
2022-11-15T04:18:26.825Z,101990.09
2022-11-15T04:21:31.670Z,101975.97
2022-11-15T04:24:18.872Z,101969.03
2022-11-15T04:27:04.773Z,101966.56
2022-11-15T04:29:51.232Z,101967.75
2022-11-15T04:32:37.224Z,101971.34
2022-11-15T04:35:23.626Z,101963.78
2022-11-15T04:38:10.283Z,101972.72
2022-11-15T04:40:56.197Z,101971.16
2022-11-15T04:43:45.059Z,101976.88
2022-11-15T04:46:31.241Z,101977.22
2022-11-15T04:49:17.020Z,101984.59
2022-11-15T04:52:03.369Z,101982.19
2022-11-15T04:54:49.745Z,101989.53
2022-11-15T04:57:37.469Z,101987.13
2022-11-15T05:00:23.449Z,101995.34
2022-11-15T05:03:28.912Z,101995.19
2022-11-15T05:06:15.135Z,101995.31
2022-11-15T05:09:01.954Z,102001.66
2022-11-15T05:11:48.488Z,101997.50
2022-11-15T05:14:34.717Z,101994.00
2022-11-15T05:17:21.805Z,101995.88
2022-11-15T05:20:08.515Z,101996.81
2022-11-15T05:22:55.449Z,101994.16
2022-11-15T05:25:41.747Z,102005.75
2022-11-15T05:28:28.357Z,102002.19
2022-11-15T05:31:16.068Z,102005.75
2022-11-15T05:34:02.513Z,102015.41
2022-11-15T05:36:48.898Z,102007.06
2022-11-15T05:39:36.207Z,102005.88
2022-11-15T05:42:22.419Z,102008.88
2022-11-15T05:45:09.057Z,102010.28
2022-11-15T05:47:55.465Z,102011.50
2022-11-15T05:50:43.224Z,102010.09
2022-11-15T05:53:29.724Z,102005.00
2022-11-15T05:56:34.702Z,102005.16
2022-11-15T05:59:20.638Z,101995.50
2022-11-15T06:02:07.104Z,101998.44
2022-11-15T06:04:53.314Z,101991.38
2022-11-15T06:07:39.617Z,101985.28
2022-11-15T06:10:25.703Z,101982.56
2022-11-15T06:13:17.147Z,101978.81
2022-11-15T06:16:03.506Z,101978.41
2022-11-15T06:18:52.054Z,101981.59
2022-11-15T06:21:38.325Z,101979.25
2022-11-15T06:24:24.949Z,101971.44
2022-11-15T06:27:12.340Z,101968.94
2022-11-15T06:29:58.685Z,101964.09
2022-11-15T06:32:44.766Z,101960.34
2022-11-15T06:35:31.172Z,101959.44
2022-11-15T06:38:17.766Z,101958.41
2022-11-15T06:41:05.562Z,101959.50
2022-11-15T06:43:51.582Z,101962.97
2022-11-15T06:46:37.590Z,101957.44
2022-11-15T06:49:23.877Z,101965.53
2022-11-15T06:52:09.986Z,101964.44
2022-11-15T06:54:56.400Z,101954.75
2022-11-15T06:57:52.332Z,101962.84
2022-11-15T07:00:39.628Z,101954.25
2022-11-15T07:03:26.079Z,101957.03
2022-11-15T07:06:12.520Z,101957.94
2022-11-15T07:08:58.871Z,101958.41
2022-11-15T07:11:45.044Z,101947.44
2022-11-15T07:14:32.645Z,101951.47
2022-11-15T07:17:19.885Z,101951.50
2022-11-15T07:20:06.596Z,101950.78
2022-11-15T07:22:52.709Z,101956.72
2022-11-15T07:25:40.685Z,101952.28
2022-11-15T07:28:27.959Z,101951.09
2022-11-15T07:31:14.372Z,101944.31
2022-11-15T07:34:01.208Z,101925.66
2022-11-15T07:36:47.590Z,101933.28
2022-11-15T07:39:33.918Z,101930.81
2022-11-15T07:42:38.271Z,101930.16
2022-11-15T07:45:24.681Z,101922.47
2022-11-15T07:48:10.449Z,101929.31
2022-11-15T07:50:56.774Z,101932.34
2022-11-15T07:53:43.858Z,101925.28
2022-11-15T07:56:30.149Z,101931.63
2022-11-15T07:59:16.732Z,101924.31
2022-11-15T08:02:03.202Z,101930.56
2022-11-15T08:04:49.612Z,101928.88
2022-11-15T08:07:41.304Z,101932.50
2022-11-15T08:10:28.152Z,101925.78
2022-11-15T08:13:14.280Z,101934.31
2022-11-15T08:16:02.021Z,101937.03
2022-11-15T08:18:48.087Z,101946.63
2022-11-15T08:21:46.529Z,101933.84
2022-11-15T08:24:36.295Z,101927.69
2022-11-15T08:27:23.538Z,101942.56
2022-11-15T08:30:10.044Z,101948.97
2022-11-15T08:32:57.621Z,101951.66
2022-11-15T08:35:43.876Z,101932.59
2022-11-15T08:38:31.002Z,101949.19
2022-11-15T08:41:25.373Z,101944.78
2022-11-15T08:44:11.473Z,101922.16
2022-11-15T08:46:57.802Z,101917.78
2022-11-15T08:49:43.830Z,101923.91
2022-11-15T08:52:30.111Z,101912.72
2022-11-15T08:55:17.628Z,101910.78
2022-11-15T08:58:05.111Z,101917.03
2022-11-15T09:00:53.015Z,101912.00
2022-11-15T09:03:41.614Z,101908.69
2022-11-15T09:06:28.377Z,101901.78
2022-11-15T09:09:14.342Z,101889.44
2022-11-15T09:12:02.756Z,101887.09
2022-11-15T09:14:50.019Z,101875.88
2022-11-15T09:17:36.320Z,101869.09
2022-11-15T09:20:23.049Z,101869.81
2022-11-15T09:23:09.353Z,101866.31
2022-11-15T09:26:00.129Z,101869.16
2022-11-15T09:28:47.501Z,101866.31
2022-11-15T09:31:33.846Z,101859.38
2022-11-15T09:34:22.213Z,101862.75
2022-11-15T09:37:08.467Z,101858.69
2022-11-15T09:39:54.925Z,101848.88
2022-11-15T09:43:23.434Z,101838.22
2022-11-15T09:46:24.170Z,101842.78
2022-11-15T09:49:21.146Z,101841.19
2022-11-15T09:52:03.785Z,101839.16
2022-11-15T09:54:55.490Z,101830.09
2022-11-15T09:57:50.517Z,101835.00
2022-11-15T10:03:18.360Z,101832.34
2022-11-15T10:05:50.061Z,101819.16
2022-11-15T10:08:32.618Z,101824.75
2022-11-15T10:11:39.495Z,101828.91
2022-11-15T10:14:15.676Z,101826.91
2022-11-15T10:17:18.423Z,101823.56
2022-11-15T10:20:07.180Z,101820.56
2022-11-15T10:22:53.095Z,101821.44
2022-11-15T10:25:25.157Z,101812.91
2022-11-15T10:28:22.798Z,101805.06
2022-11-15T10:31:02.068Z,101792.22
2022-11-15T10:33:41.264Z,101779.94
2022-11-15T10:36:18.900Z,101780.81
2022-11-15T10:38:49.871Z,101795.44
2022-11-15T10:41:32.439Z,101790.72
2022-11-15T10:44:12.378Z,101784.28
2022-11-15T10:46:48.874Z,101768.13
2022-11-15T10:49:21.376Z,101772.25
2022-11-15T10:51:56.901Z,101777.78
2022-11-15T10:54:50.844Z,101765.59
2022-11-15T10:57:23.759Z,101754.56
2022-11-15T10:59:54.049Z,101751.06
2022-11-15T11:02:54.089Z,101750.69
2022-11-15T11:05:41.220Z,101744.94
2022-11-15T11:08:12.493Z,101751.38
2022-11-15T11:11:01.564Z,101742.50
2022-11-15T11:13:33.086Z,101734.38
2022-11-15T11:16:16.300Z,101729.25
2022-11-15T11:19:02.584Z,101728.38
2022-11-15T11:21:52.706Z,101729.53
2022-11-15T11:24:29.274Z,101722.66
2022-11-15T11:27:15.311Z,101717.63
2022-11-15T11:30:10.880Z,101712.53
2022-11-15T11:33:04.709Z,101714.72
2022-11-15T11:35:51.914Z,101701.84
2022-11-15T11:38:34.880Z,101702.13
2022-11-15T11:41:14.904Z,101703.63
2022-11-15T11:44:02.811Z,101700.28
2022-11-15T11:46:57.774Z,101701.84
2022-11-15T11:49:32.456Z,101702.66
2022-11-15T11:52:09.788Z,101690.97
2022-11-15T11:54:49.378Z,101686.81
2022-11-15T11:57:39.650Z,101684.88
2022-11-15T12:00:23.659Z,101684.28
2022-11-15T12:03:26.498Z,101679.69
2022-11-15T12:06:21.282Z,101670.97
2022-11-15T12:08:57.755Z,101672.63
2022-11-15T12:11:30.362Z,101669.63
2022-11-15T12:14:00.940Z,101666.78
2022-11-15T12:16:32.291Z,101674.25
2022-11-15T12:19:05.788Z,101676.63
2022-11-15T12:21:53.543Z,101661.44
2022-11-15T12:24:36.358Z,101677.91
2022-11-15T12:27:10.013Z,101663.56
2022-11-15T12:29:44.569Z,101659.72
2022-11-15T12:32:26.839Z,101653.81
2022-11-15T12:34:54.433Z,101643.66
2022-11-15T12:37:38.803Z,101630.34
2022-11-15T12:40:22.151Z,101627.50
2022-11-15T12:43:15.105Z,101620.22
2022-11-15T12:45:44.375Z,101610.09
2022-11-15T12:48:18.340Z,101612.03
2022-11-15T12:50:52.092Z,101608.88
2022-11-15T12:53:25.830Z,101599.09
2022-11-15T12:56:05.596Z,101598.78
2022-11-15T12:58:47.639Z,101592.56
2022-11-15T13:01:33.788Z,101594.63
2022-11-15T13:04:19.883Z,101586.47
2022-11-15T13:06:50.879Z,101583.53
2022-11-15T13:09:37.684Z,101582.19
2022-11-15T13:12:15.514Z,101577.97
2022-11-15T13:14:52.463Z,101573.13
2022-11-15T13:17:20.040Z,101572.88
2022-11-15T13:19:49.193Z,101572.19
2022-11-15T13:22:35.256Z,101572.06
2022-11-15T13:25:02.865Z,101574.63
2022-11-15T13:27:31.180Z,101571.19
2022-11-15T13:29:58.717Z,101575.16
2022-11-15T13:32:26.780Z,101576.56
2022-11-15T13:34:54.419Z,101573.50
2022-11-15T13:37:21.990Z,101570.03
2022-11-15T13:39:50.006Z,101565.84
2022-11-15T13:42:20.982Z,101566.94
2022-11-15T13:45:00.027Z,101558.69
2022-11-15T13:47:28.791Z,101557.34
2022-11-15T13:50:00.230Z,101551.88
2022-11-15T13:52:34.349Z,101545.78
2022-11-15T13:55:14.431Z,101540.28
2022-11-15T13:57:46.732Z,101546.16
2022-11-15T14:00:29.582Z,101550.88
2022-11-15T14:02:57.366Z,101540.13
2022-11-15T14:05:25.545Z,101543.00
2022-11-15T14:07:59.212Z,101536.44
2022-11-15T14:10:35.546Z,101525.41
2022-11-15T14:13:03.803Z,101526.69
2022-11-15T14:15:34.222Z,101529.66
2022-11-15T14:18:04.768Z,101525.13
2022-11-15T14:20:39.130Z,101524.78
2022-11-15T14:23:27.707Z,101523.31
2022-11-15T14:25:58.153Z,101517.91
2022-11-15T14:28:31.151Z,101515.44
2022-11-15T14:30:59.848Z,101516.44
2022-11-15T14:33:35.110Z,101498.03
2022-11-15T14:36:07.312Z,101507.59
2022-11-15T15:28:33.104Z,101415.50
2022-11-15T15:31:40.976Z,101407.78
2022-11-15T15:34:18.442Z,101409.13
2022-11-15T15:36:53.376Z,101412.69
2022-11-15T15:39:59.697Z,101407.53
2022-11-15T15:42:45.459Z,101402.88
2022-11-15T15:45:28.171Z,101403.09
2022-11-15T15:48:01.939Z,101389.34
2022-11-15T15:50:38.020Z,101381.66
2022-11-15T15:53:12.749Z,101372.19
2022-11-15T15:56:13.531Z,101371.69
2022-11-15T15:58:55.016Z,101357.22
2022-11-15T16:01:28.537Z,101362.97
2022-11-15T16:04:02.647Z,101354.03
2022-11-15T16:06:41.162Z,101353.75
2022-11-15T16:09:22.545Z,101345.91
2022-11-15T16:11:56.050Z,101350.47
2022-11-15T16:14:28.169Z,101351.28
2022-11-15T16:17:11.915Z,101343.84
2022-11-15T16:19:55.531Z,101344.72
2022-11-15T16:22:33.625Z,101335.56
2022-11-15T16:25:05.477Z,101337.16
2022-11-15T16:27:50.132Z,101333.63
2022-11-15T16:30:44.442Z,101334.22
2022-11-15T16:33:38.244Z,101321.78
2022-11-15T16:36:38.553Z,101315.88
2022-11-15T16:39:48.635Z,101317.72
2022-11-15T16:46:26.353Z,101302.16
2022-11-15T16:50:10.082Z,101300.56
2022-11-15T16:53:13.286Z,101298.47
2022-11-15T16:56:45.527Z,101298.25
2022-11-15T16:59:27.283Z,101295.78
2022-11-15T17:02:39.601Z,101299.06
2022-11-15T17:05:46.338Z,101288.53
2022-11-15T17:08:44.902Z,101290.81
2022-11-15T17:11:25.453Z,101284.69
2022-11-15T17:14:04.708Z,101273.44
2022-11-15T17:16:49.270Z,101274.44
2022-11-15T17:19:29.565Z,101278.81
2022-11-15T17:22:02.930Z,101271.84
2022-11-15T17:24:43.151Z,101270.25
2022-11-15T17:27:19.226Z,101266.19
2022-11-15T17:29:56.019Z,101265.72
2022-11-15T17:32:45.668Z,101268.06
2022-11-15T17:35:35.572Z,101265.34
2022-11-15T17:38:22.046Z,101265.00
2022-11-15T17:41:16.049Z,101253.16
2022-11-15T17:44:07.938Z,101253.63
2022-11-15T17:47:28.462Z,101246.44
2022-11-15T17:50:09.991Z,101248.34
2022-11-15T17:52:57.798Z,101237.84
2022-11-15T17:55:45.225Z,101237.00
2022-11-15T17:58:28.216Z,101230.63
2022-11-15T18:01:20.309Z,101220.84
2022-11-15T18:03:54.201Z,101213.31
2022-11-15T18:06:24.943Z,101212.38
2022-11-15T18:09:10.183Z,101211.50
2022-11-15T18:11:50.834Z,101208.28
2022-11-15T18:14:44.341Z,101203.19
2022-11-15T18:17:14.772Z,101200.63
2022-11-15T18:19:42.774Z,101195.28
2022-11-15T18:22:12.890Z,101193.97
2022-11-15T18:24:54.973Z,101183.69
2022-11-15T18:27:26.937Z,101191.78
2022-11-15T18:30:01.868Z,101196.91
2022-11-15T18:32:31.521Z,101187.81
2022-11-15T18:35:00.079Z,101191.38
2022-11-15T18:37:33.752Z,101186.88
2022-11-15T18:40:02.270Z,101176.94
2022-11-15T18:42:33.204Z,101180.34
2022-11-15T18:45:05.378Z,101171.28
2022-11-15T18:47:38.059Z,101181.81
2022-11-15T18:50:07.889Z,101174.44
2022-11-15T18:52:39.248Z,101170.19
2022-11-15T18:55:10.719Z,101162.69
2022-11-15T18:57:39.165Z,101166.81
2022-11-15T19:00:10.676Z,101167.53
2022-11-15T19:02:39.804Z,101156.63
2022-11-15T19:05:16.018Z,101156.06
2022-11-15T19:07:45.000Z,101163.28
2022-11-15T19:10:27.011Z,101159.03
2022-11-15T19:13:41.581Z,101154.06
2022-11-15T19:16:35.419Z,101147.84
2022-11-15T19:19:10.597Z,101144.00
2022-11-15T19:21:39.659Z,101135.91
2022-11-15T19:24:10.975Z,101139.31
2022-11-15T19:26:43.935Z,101122.09
2022-11-15T19:29:18.596Z,101122.25
2022-11-15T19:31:53.149Z,101128.22
2022-11-15T19:34:26.502Z,101125.97
2022-11-15T19:36:54.964Z,101111.44
2022-11-15T19:39:23.344Z,101116.28
2022-11-15T19:41:57.716Z,101113.44
2022-11-15T19:44:41.240Z,101105.22
2022-11-15T19:48:26.007Z,101095.25
2022-11-15T19:50:30.858Z,101097.94
2022-11-15T19:53:33.321Z,101096.53
2022-11-15T19:56:12.149Z,101085.03
2022-11-15T19:58:44.772Z,101080.31
2022-11-15T20:04:32.060Z,101070.09
2022-11-15T20:07:11.952Z,101065.41
2022-11-15T20:09:45.443Z,101065.84
2022-11-15T20:12:31.548Z,101064.13
2022-11-15T20:15:08.685Z,101056.31
2022-11-15T20:17:39.713Z,101054.75
2022-11-15T20:20:12.360Z,101041.25
2022-11-15T20:22:44.061Z,101042.81
2022-11-15T20:25:13.679Z,101045.34
2022-11-15T20:27:41.791Z,101040.09
2022-11-15T20:30:10.711Z,101035.25
2022-11-15T20:32:45.233Z,101032.72
2022-11-15T20:35:40.886Z,101026.72
2022-11-15T20:38:09.852Z,101035.69
2022-11-15T20:40:41.808Z,101028.72
2022-11-15T20:43:14.528Z,101038.13
2022-11-15T20:45:54.658Z,101028.59
2022-11-15T20:49:01.489Z,101016.50
2022-11-15T20:51:30.055Z,101020.19
2022-11-15T20:54:01.729Z,101022.31
2022-11-15T20:56:29.944Z,101019.88
2022-11-15T20:58:58.013Z,101010.22
2022-11-15T21:01:27.486Z,101007.94
2022-11-15T21:03:56.310Z,100999.69
2022-11-15T21:06:25.873Z,100998.56
2022-11-15T21:09:13.160Z,101008.94
2022-11-15T21:11:59.979Z,100999.25
2022-11-15T21:14:40.988Z,100996.13
2022-11-15T21:17:15.166Z,100993.13
2022-11-15T21:19:43.909Z,100992.56
2022-11-15T21:22:13.354Z,100988.13
2022-11-15T21:24:41.647Z,100989.72
2022-11-15T21:27:09.914Z,100984.16
2022-11-15T21:29:50.281Z,100981.75
2022-11-15T21:32:20.990Z,100968.34
2022-11-15T21:34:51.859Z,100967.50
2022-11-15T21:37:19.915Z,100967.81
2022-11-15T21:39:47.822Z,100952.56
2022-11-15T21:42:18.419Z,100958.84
2022-11-15T21:44:49.391Z,100954.13
2022-11-15T21:47:17.771Z,100950.13
2022-11-15T21:49:46.045Z,100941.59
2022-11-15T21:52:17.245Z,100942.16
2022-11-15T21:55:01.817Z,100937.50
2022-11-15T21:57:32.826Z,100930.09
2022-11-15T22:00:26.222Z,100928.81
2022-11-15T22:02:54.793Z,100934.06
2022-11-15T22:05:22.743Z,100922.25
2022-11-15T22:07:50.837Z,100921.09
2022-11-15T22:10:38.164Z,100910.41
2022-11-15T22:13:10.158Z,100909.72
2022-11-15T22:15:38.700Z,100902.59
2022-11-15T22:18:09.440Z,100893.91
2022-11-15T22:20:44.899Z,100894.59
2022-11-15T22:23:13.311Z,100878.84
2022-11-15T22:25:41.853Z,100884.06
2022-11-15T22:28:09.905Z,100882.94
2022-11-15T22:30:38.551Z,100880.09
2022-11-15T22:33:07.541Z,100862.84
2022-11-15T22:35:43.420Z,100866.41
2022-11-15T22:38:11.811Z,100862.13
2022-11-15T22:40:40.107Z,100862.00
2022-11-15T22:43:17.401Z,100851.47
2022-11-15T22:45:52.601Z,100855.56
2022-11-15T22:48:21.847Z,100840.66
2022-11-15T22:50:56.217Z,100843.53
2022-11-15T22:53:24.856Z,100832.25
2022-11-15T22:55:59.758Z,100828.53
2022-11-15T22:58:40.941Z,100821.56
2022-11-15T23:01:15.386Z,100820.00
2022-11-15T23:03:44.169Z,100808.19
2022-11-15T23:06:15.315Z,100804.34
2022-11-15T23:08:47.549Z,100799.09
2022-11-15T23:11:41.703Z,100802.03
2022-11-15T23:14:13.543Z,100800.66
2022-11-15T23:16:41.575Z,100799.09
2022-11-15T23:19:11.009Z,100787.56
2022-11-15T23:22:04.407Z,100787.84
2022-11-15T23:24:39.429Z,100793.97
2022-11-15T23:27:08.126Z,100788.41
2022-11-15T23:29:58.559Z,100774.88
2022-11-15T23:32:52.772Z,100770.50
2022-11-15T23:35:24.183Z,100765.94
2022-11-15T23:37:52.293Z,100767.63
2022-11-15T23:40:20.951Z,100765.34
2022-11-15T23:42:54.833Z,100769.78
2022-11-15T23:45:24.246Z,100771.72
2022-11-15T23:47:58.371Z,100767.94
2022-11-15T23:50:29.549Z,100765.63
2022-11-15T23:52:58.568Z,100760.50
2022-11-15T23:55:26.970Z,100745.13
2022-11-15T23:57:55.094Z,100758.53
